Time;durP1;ratioP1;P1;durP2;ratioP2;P2;SDS_P1;SDS_P2;PMS_P1;PMS_P2;Temp;Humidity;BMP_temperature;BMP_pressure;BME280_temperature;BME280_humidity;BME280_pressure;Samples;Min_cycle;Max_cycle;Signal;HPM_P1;HPM_P2
2021/05/21 00:00:12;;;;;;;6.80;5.20;;;;;;;11.20;100.00;100310.28;4979088;28;20175;-83
2021/05/21 00:02:42;;;;;;;6.57;5.07;;;;;;;11.22;100.00;100308.09;4977440;29;20203;-81
2021/05/21 00:05:08;;;;;;;6.87;5.40;;;;;;;11.28;100.00;100295.25;4961548;28;20179;-80
2021/05/21 00:07:34;;;;;;;6.53;5.47;;;;;;;11.17;100.00;100294.56;4948424;29;20215;-80
2021/05/21 00:10:01;;;;;;;6.37;5.00;;;;;;;11.19;100.00;100288.84;4946715;29;20550;-80
2021/05/21 00:12:27;;;;;;;6.50;5.37;;;;;;;11.13;100.00;100286.44;4946503;29;20251;-79
2021/05/21 00:14:55;;;;;;;6.87;5.77;;;;;;;11.08;100.00;100284.59;4946831;29;20282;-80
2021/05/21 00:17:21;;;;;;;8.07;6.13;;;;;;;11.05;100.00;100268.03;4962574;28;20290;-79
2021/05/21 00:19:51;;;;;;;6.23;5.50;;;;;;;11.02;100.00;100274.81;4947612;29;20732;-79
2021/05/21 00:22:18;;;;;;;9.87;5.90;;;;;;;10.94;100.00;100266.50;4943909;29;20239;-80
2021/05/21 00:24:49;;;;;;;6.63;5.93;;;;;;;10.83;100.00;100260.31;4946426;29;20179;-80
2021/05/21 00:27:22;;;;;;;6.23;5.63;;;;;;;10.86;100.00;100253.50;4978090;28;20254;-80
2021/05/21 00:29:47;;;;;;;9.33;6.27;;;;;;;10.87;100.00;100246.97;4982793;28;20182;-79
2021/05/21 00:32:13;;;;;;;8.57;6.30;;;;;;;10.97;100.00;100238.72;4980231;28;20238;-80
2021/05/21 00:34:39;;;;;;;8.17;6.40;;;;;;;10.76;100.00;100240.81;4984758;28;20178;-79
2021/05/21 00:37:07;;;;;;;8.67;6.70;;;;;;;10.70;100.00;100237.63;4966646;28;20246;-79
2021/05/21 00:39:34;;;;;;;9.90;7.10;;;;;;;10.73;100.00;100231.59;4983250;28;20278;-79
2021/05/21 00:42:00;;;;;;;9.73;6.63;;;;;;;10.63;100.00;100221.63;4965680;28;20236;-80
2021/05/21 00:44:32;;;;;;;9.37;7.23;;;;;;;10.66;100.00;100222.94;4967983;28;20240;-81
2021/05/21 00:46:58;;;;;;;9.27;7.00;;;;;;;10.56;100.00;100212.97;4983191;28;20230;-81
2021/05/21 00:49:26;;;;;;;9.17;6.67;;;;;;;10.58;100.00;100210.00;4967390;28;20186;-80
2021/05/21 00:51:54;;;;;;;9.40;6.87;;;;;;;10.63;100.00;100199.91;4978778;28;20774;-81
2021/05/21 00:54:25;;;;;;;8.40;6.77;;;;;;;10.60;100.00;100199.66;4963779;28;20187;-79
2021/05/21 00:56:53;;;;;;;7.97;6.43;;;;;;;10.52;100.00;100203.78;4973892;28;20651;-81
2021/05/21 00:59:18;;;;;;;8.60;6.97;;;;;;;10.56;100.00;100193.16;4941899;28;20194;-79
2021/05/21 01:01:48;;;;;;;8.10;6.67;;;;;;;10.49;100.00;100188.06;4978791;28;20297;-78
2021/05/21 01:04:14;;;;;;;7.33;6.47;;;;;;;10.56;100.00;100174.97;4975958;28;20190;-78
2021/05/21 01:06:42;;;;;;;9.90;7.13;;;;;;;10.40;100.00;100178.91;4958344;28;20226;-79
2021/05/21 01:09:08;;;;;;;8.00;7.07;;;;;;;10.47;100.00;100165.81;4975064;28;20217;-79
2021/05/21 01:11:34;;;;;;;8.40;7.03;;;;;;;10.54;100.00;100155.44;4960013;28;20835;-80
2021/05/21 01:13:59;;;;;;;8.53;6.73;;;;;;;10.56;100.00;100149.72;4962073;29;20249;-79
2021/05/21 01:16:27;;;;;;;8.30;7.00;;;;;;;10.60;100.00;100140.72;4961424;28;20233;-80
2021/05/21 01:18:56;;;;;;;8.40;6.67;;;;;;;10.64;100.00;100136.34;4994716;28;20182;-81
2021/05/21 01:21:21;;;;;;;8.33;6.90;;;;;;;10.61;100.00;100127.97;4959548;29;20226;-81
2021/05/21 01:23:56;;;;;;;8.30;6.63;;;;;;;10.63;100.00;100121.16;4959441;28;20230;-80
2021/05/21 01:26:21;;;;;;;11.37;7.10;;;;;;;10.68;100.00;100126.53;4986319;28;20270;-81
2021/05/21 01:28:47;;;;;;;9.87;7.50;;;;;;;10.65;100.00;100116.22;4959660;29;20207;-80
2021/05/21 01:31:13;;;;;;;9.87;7.50;;;;;;;10.77;100.00;100105.81;4949286;28;20222;-80
2021/05/21 01:33:38;;;;;;;8.57;7.33;;;;;;;10.73;100.00;100102.03;4980023;28;20248;-81
2021/05/21 01:36:04;;;;;;;11.70;7.87;;;;;;;10.77;100.00;100097.66;4968085;28;20234;-80
2021/05/21 01:38:29;;;;;;;8.10;7.23;;;;;;;10.80;100.00;100092.47;4984011;28;20178;-80
2021/05/21 01:41:00;;;;;;;8.90;6.87;;;;;;;10.87;100.00;100086.69;4951772;28;20232;-79
2021/05/21 01:43:25;;;;;;;9.40;7.17;;;;;;;10.84;100.00;100087.25;4971349;28;20643;-81
2021/05/21 01:45:53;;;;;;;9.70;7.13;;;;;;;10.78;100.00;100077.53;4983570;28;20277;-81
2021/05/21 01:48:21;;;;;;;9.97;7.33;;;;;;;10.73;100.00;100074.88;4937626;29;20219;-80
2021/05/21 01:50:51;;;;;;;9.43;7.73;;;;;;;10.67;100.00;100069.78;4968464;29;20238;-80
2021/05/21 01:53:19;;;;;;;8.50;6.80;;;;;;;10.61;100.00;100071.75;4968483;29;20230;-81
2021/05/21 01:55:54;;;;;;;8.90;6.77;;;;;;;10.48;100.00;100064.25;4936691;29;20289;-80
2021/05/21 01:58:22;;;;;;;10.67;7.93;;;;;;;10.47;100.00;100068.06;4971522;28;20179;-81
2021/05/21 02:00:50;;;;;;;10.00;7.47;;;;;;;10.45;100.00;100061.31;4952342;29;20700;-80
2021/05/21 02:03:18;;;;;;;8.20;7.30;;;;;;;10.45;100.00;100053.97;4937377;29;20504;-79
2021/05/21 02:05:51;;;;;;;9.93;6.77;;;;;;;10.45;100.00;100051.25;4985474;28;20469;-78
2021/05/21 02:08:19;;;;;;;9.87;7.20;;;;;;;10.42;100.00;100040.97;4939214;29;20215;-80
2021/05/21 02:10:47;;;;;;;8.93;7.17;;;;;;;10.41;100.00;100044.78;4937235;29;20219;-80
2021/05/21 02:13:12;;;;;;;9.37;7.10;;;;;;;10.32;100.00;100040.25;4941964;29;20242;-81
2021/05/21 02:15:38;;;;;;;8.80;7.33;;;;;;;10.30;100.00;100030.78;4958105;29;20222;-80
2021/05/21 02:18:04;;;;;;;7.77;6.57;;;;;;;10.34;100.00;100029.13;4974760;29;20179;-79
2021/05/21 02:20:31;;;;;;;7.93;6.83;;;;;;;10.38;100.00;100029.09;4926480;28;20246;-81
2021/05/21 02:22:57;;;;;;;8.60;6.50;;;;;;;10.41;100.00;100024.97;4958520;29;20209;-79
2021/05/21 02:25:23;;;;;;;9.37;7.33;;;;;;;10.35;100.00;100015.25;4990965;28;20646;-79
2021/05/21 02:27:53;;;;;;;9.20;7.97;;;;;;;10.35;100.00;100017.16;4972740;28;20586;-80
2021/05/21 02:30:19;;;;;;;9.10;7.13;;;;;;;10.34;100.00;100010.13;4967615;28;20194;-79
2021/05/21 02:32:45;;;;;;;8.07;6.77;;;;;;;10.36;100.00;100002.50;4983774;28;20229;-79
2021/05/21 02:35:11;;;;;;;8.00;6.90;;;;;;;10.37;100.00;100004.13;4934333;28;20195;-79
2021/05/21 02:37:42;;;;;;;9.80;6.80;;;;;;;10.38;100.00;99996.50;4936014;29;20253;-79
2021/05/21 02:40:08;;;;;;;7.33;6.60;;;;;;;10.33;100.00;99993.03;4934873;28;20197;-79
2021/05/21 02:42:34;;;;;;;7.53;6.53;;;;;;;10.42;100.00;99992.13;4966635;29;20227;-79
2021/05/21 02:45:04;;;;;;;9.10;6.57;;;;;;;10.53;100.00;99981.94;4951402;29;20191;-79
2021/05/21 02:47:32;;;;;;;9.50;6.40;;;;;;;10.43;100.00;99977.44;4946646;28;20241;-80
2021/05/21 02:50:01;;;;;;;7.37;6.40;;;;;;;10.47;100.00;99981.19;4954813;28;20186;-79
2021/05/21 02:52:26;;;;;;;7.33;6.33;;;;;;;10.46;100.00;99982.28;4951948;28;20242;-79
2021/05/21 02:54:54;;;;;;;6.67;5.83;;;;;;;10.42;100.00;99967.69;4993413;28;20250;-79
2021/05/21 02:57:23;;;;;;;6.17;4.50;;;;;;;10.38;100.00;99963.94;4993540;28;20249;-82
2021/05/21 02:59:50;;;;;;;6.90;5.10;;;;;;;10.36;100.00;99961.78;4997481;28;20198;-81
2021/05/21 03:02:15;;;;;;;6.43;5.10;;;;;;;10.45;100.00;99955.44;4995476;28;20233;-81
2021/05/21 03:04:43;;;;;;;6.30;5.10;;;;;;;10.52;100.00;99953.19;4997480;28;20194;-81
2021/05/21 03:07:09;;;;;;;5.67;4.60;;;;;;;10.52;100.00;99947.75;4997040;28;20231;-82
2021/05/21 03:09:35;;;;;;;4.70;4.27;;;;;;;10.55;100.00;99948.00;4977591;28;20281;-79
2021/05/21 03:12:02;;;;;;;5.07;3.60;;;;;;;10.65;100.00;99949.78;4951035;29;20227;-79
2021/05/21 03:14:28;;;;;;;3.30;3.00;;;;;;;10.75;100.00;99934.16;4950811;29;20206;-80
2021/05/21 03:16:54;;;;;;;3.10;2.80;;;;;;;10.81;100.00;99935.72;4965061;28;20223;-80
2021/05/21 03:19:19;;;;;;;2.50;2.30;;;;;;;10.78;100.00;99931.66;4965022;28;20190;-80
2021/05/21 03:21:47;;;;;;;4.80;2.30;;;;;;;10.94;100.00;99924.13;4946887;29;20234;-80
2021/05/21 03:24:15;;;;;;;2.53;2.33;;;;;;;11.01;100.00;99919.16;4946148;29;20197;-79
2021/05/21 03:26:43;;;;;;;6.43;2.50;;;;;;;10.93;100.00;99922.50;4928528;29;20226;-79
2021/05/21 03:29:14;;;;;;;2.47;2.27;;;;;;;11.10;100.00;99906.50;4963147;28;20218;-80
2021/05/21 03:31:44;;;;;;;2.37;2.17;;;;;;;11.07;100.00;99907.09;4928328;29;20231;-81
2021/05/21 03:34:12;;;;;;;2.10;1.90;;;;;;;11.09;100.00;99910.34;4964059;29;20211;-79
2021/05/21 03:36:40;;;;;;;2.63;2.10;;;;;;;11.26;100.00;99890.50;4956941;28;20784;-78
2021/05/21 03:39:08;;;;;;;2.20;2.00;;;;;;;11.21;100.00;99887.84;4928093;29;20175;-79
2021/05/21 03:41:37;;;;;;;1.90;1.73;;;;;;;11.31;100.00;99884.97;4945012;28;20636;-80
2021/05/21 03:44:03;;;;;;;1.90;1.70;;;;;;;11.39;100.00;99878.06;4962787;28;20179;-79
2021/05/21 03:46:37;;;;;;;2.13;1.90;;;;;;;11.36;100.00;99884.09;4958000;28;20223;-79
2021/05/21 03:49:02;;;;;;;2.13;1.93;;;;;;;11.32;100.00;99875.72;4955933;29;20225;-80
2021/05/21 03:51:30;;;;;;;2.60;1.90;;;;;;;11.47;100.00;99872.78;4938808;29;20230;-81
2021/05/21 03:53:59;;;;;;;2.17;1.80;;;;;;;11.52;100.00;99873.50;4955710;29;20202;-82
2021/05/21 03:56:24;;;;;;;1.77;1.67;;;;;;;11.58;100.00;99866.09;4959132;28;20242;-81
2021/05/21 03:58:50;;;;;;;1.80;1.70;;;;;;;11.69;100.00;99867.53;4960141;29;20183;-80
2021/05/21 04:01:16;;;;;;;3.33;1.43;;;;;;;12.14;100.00;99860.16;4957356;28;20704;-78
2021/05/21 04:03:44;;;;;;;2.13;1.57;;;;;;;12.51;100.00;99859.91;4957744;29;20215;-81
2021/05/21 04:06:10;;;;;;;2.90;1.60;;;;;;;12.39;100.00;99852.25;4940763;29;21016;-80
2021/05/21 04:08:36;;;;;;;3.53;1.50;;;;;;;12.16;100.00;99852.47;4956920;29;20211;-78
2021/05/21 04:11:04;;;;;;;2.13;1.93;;;;;;;12.22;100.00;99845.03;4957386;28;20669;-79
2021/05/21 04:13:29;;;;;;;2.30;1.63;;;;;;;12.14;100.00;99840.25;4942406;29;20218;-83
2021/05/21 04:15:55;;;;;;;4.13;1.60;;;;;;;11.97;100.00;99849.00;4956864;28;20236;-80
2021/05/21 04:18:20;;;;;;;1.70;1.60;;;;;;;12.11;100.00;99838.16;4955661;29;20186;-81
2021/05/21 04:20:53;;;;;;;1.77;1.40;;;;;;;12.04;100.00;99833.09;4941431;29;20831;-80
2021/05/21 04:23:18;;;;;;;1.60;1.50;;;;;;;12.13;100.00;99825.84;4957389;28;20210;-80
2021/05/21 04:25:48;;;;;;;1.40;1.30;;;;;;;12.06;100.00;99825.44;4974914;28;20226;-81
2021/05/21 04:28:15;;;;;;;2.40;1.40;;;;;;;12.00;100.00;99826.66;4976518;28;20221;-80
2021/05/21 04:30:43;;;;;;;1.60;1.40;;;;;;;12.16;100.00;99825.25;4942510;28;20249;-80
2021/05/21 04:33:09;;;;;;;2.50;1.30;;;;;;;12.06;100.00;99814.56;4943362;28;20214;-82
2021/05/21 04:35:37;;;;;;;1.50;1.10;;;;;;;12.43;100.00;99817.06;4957425;28;20253;-80
2021/05/21 04:38:08;;;;;;;2.67;1.40;;;;;;;12.55;99.10;99815.44;4943011;28;20186;-80
2021/05/21 04:40:34;;;;;;;1.30;1.20;;;;;;;12.67;97.48;99817.63;4973607;28;20245;-80
2021/05/21 04:43:04;;;;;;;3.20;1.30;;;;;;;12.95;95.40;99815.38;4973452;28;20210;-80
2021/05/21 04:45:30;;;;;;;1.83;1.13;;;;;;;12.91;94.28;99808.09;4941669;28;20712;-80
2021/05/21 04:47:58;;;;;;;2.00;1.40;;;;;;;12.90;94.52;99815.47;4958187;28;20576;-83
2021/05/21 04:50:26;;;;;;;1.10;1.00;;;;;;;12.89;95.61;99807.59;4951748;28;20234;-80
2021/05/21 04:52:54;;;;;;;2.93;1.63;;;;;;;12.93;95.81;99805.88;4941849;28;20297;-81
2021/05/21 04:55:24;;;;;;;1.70;1.30;;;;;;;13.03;95.13;99802.91;4971017;28;20229;-80
2021/05/21 04:57:52;;;;;;;1.30;1.00;;;;;;;13.26;93.59;99791.69;4988306;28;20179;-81
2021/05/21 05:00:22;;;;;;;1.20;1.10;;;;;;;13.37;90.32;99798.50;4970805;28;20193;-80
2021/05/21 05:02:50;;;;;;;1.10;1.00;;;;;;;13.41;90.80;99794.06;4953583;29;20261;-81
2021/05/21 05:05:19;;;;;;;0.90;0.90;;;;;;;13.56;90.61;99795.25;4937003;28;20664;-81
2021/05/21 05:07:45;;;;;;;1.30;1.07;;;;;;;13.27;89.77;99787.84;4957762;28;20687;-80
2021/05/21 05:10:13;;;;;;;4.00;1.17;;;;;;;13.32;90.98;99782.28;4955800;28;20622;-79
2021/05/21 05:12:42;;;;;;;2.27;1.10;;;;;;;13.46;91.76;99784.63;4962681;28;20306;-81
2021/05/21 05:15:08;;;;;;;1.00;1.00;;;;;;;13.62;90.56;99780.38;4972133;28;20206;-81
2021/05/21 05:17:35;;;;;;;1.00;1.00;;;;;;;13.96;89.15;99781.34;4971814;28;20209;-80
2021/05/21 05:20:04;;;;;;;4.47;1.00;;;;;;;14.10;85.75;99771.16;4964434;28;20646;-81
2021/05/21 05:22:46;;;;;;;3.10;1.00;;;;;;;14.17;86.83;99765.22;4953281;28;20222;-81
2021/05/21 05:25:12;;;;;;;13.37;11.70;;;;;;;14.93;82.04;99757.94;4957358;28;20660;-79
2021/05/21 05:27:40;;;;;;;3.87;3.20;;;;;;;15.10;79.15;99759.50;4954874;28;20217;-80
2021/05/21 05:30:08;;;;;;;1.53;0.97;;;;;;;14.63;81.61;99762.44;4937875;28;20279;-79
2021/05/21 05:32:37;;;;;;;0.97;0.87;;;;;;;14.11;82.44;99766.50;4969969;28;20195;-81
2021/05/21 05:35:10;;;;;;;1.10;0.83;;;;;;;14.21;84.34;99753.31;4927157;28;20206;-79
2021/05/21 05:37:36;;;;;;;1.10;1.00;;;;;;;14.13;84.83;99754.13;4958096;28;20547;-81
2021/05/21 05:40:05;;;;;;;1.60;1.10;;;;;;;14.09;84.80;99755.09;4971772;28;20175;-79
2021/05/21 05:42:31;;;;;;;4.70;1.83;;;;;;;14.35;83.87;99754.81;4923460;29;20289;-81
2021/05/21 05:44:56;;;;;;;1.53;1.00;;;;;;;14.42;83.32;99751.63;4963580;28;20194;-83
2021/05/21 05:47:23;;;;;;;2.40;0.90;;;;;;;14.43;84.58;99755.94;4963812;28;20238;-80
2021/05/21 05:49:48;;;;;;;1.27;0.90;;;;;;;14.57;84.44;99742.97;4963279;29;20209;-80
2021/05/21 05:52:17;;;;;;;1.00;0.90;;;;;;;14.78;81.96;99744.72;4955656;28;20230;-79
2021/05/21 05:54:47;;;;;;;2.20;1.47;;;;;;;14.83;81.19;99728.16;4955670;29;20206;-79
2021/05/21 05:57:13;;;;;;;1.10;0.90;;;;;;;14.82;79.37;99737.50;4956558;28;20479;-80
2021/05/21 05:59:39;;;;;;;1.03;0.77;;;;;;;14.97;82.76;99729.63;4955425;28;20183;-78
2021/05/21 06:02:08;;;;;;;3.10;1.10;;;;;;;14.92;80.77;99726.25;4939394;28;20644;-77
2021/05/21 06:04:38;;;;;;;1.17;1.00;;;;;;;14.82;80.43;99734.78;4955359;29;20191;-79
2021/05/21 06:07:03;;;;;;;1.40;0.90;;;;;;;14.66;83.02;99730.91;4939013;28;20230;-81
2021/05/21 06:09:32;;;;;;;0.80;0.80;;;;;;;14.84;82.08;99721.59;4923311;29;20187;-81
2021/05/21 06:11:57;;;;;;;1.70;0.80;;;;;;;15.09;80.62;99730.56;4952780;28;20241;-79
2021/05/21 06:14:28;;;;;;;1.07;0.83;;;;;;;14.47;83.06;99722.22;4956337;29;20183;-79
2021/05/21 06:16:56;;;;;;;2.72;0.80;;;;;;;14.48;84.48;99718.34;4954963;28;20613;-80
2021/05/21 06:19:22;;;;;;;2.07;1.00;;;;;;;14.52;83.58;99722.03;4954216;29;20189;-79
2021/05/21 06:22:01;;;;;;;1.10;0.80;;;;;;;14.59;84.31;99714.19;4953306;28;20254;-81
2021/05/21 06:24:27;;;;;;;1.73;1.03;;;;;;;14.61;83.24;99717.38;4971890;28;20246;-78
2021/05/21 06:29:39;;;;;;;2.30;0.60;;;;;;;15.18;79.63;99703.22;4958661;28;20160;-80
2021/05/21 06:32:05;;;;;;;1.07;0.80;;;;;;;15.34;79.66;99699.63;4925236;28;20615;-80
2021/05/21 06:34:31;;;;;;;2.47;1.00;;;;;;;15.34;77.97;99699.63;4961632;28;20496;-80
2021/05/21 06:36:56;;;;;;;1.08;0.70;;;;;;;15.58;76.72;99700.69;4960470;28;20697;-80
2021/05/21 06:39:27;;;;;;;1.67;0.70;;;;;;;15.70;77.54;99698.06;4943546;29;20563;-78
2021/05/21 06:41:55;;;;;;;1.10;1.00;;;;;;;15.74;75.57;99687.25;4943257;29;20250;-78
2021/05/21 06:44:25;;;;;;;1.35;0.82;;;;;;;15.60;72.75;99683.94;4944933;29;20226;-80
2021/05/21 06:46:57;;;;;;;2.00;0.70;;;;;;;15.60;73.31;99686.66;4942693;29;20230;-81
2021/05/21 06:49:24;;;;;;;0.70;0.70;;;;;;;15.75;72.21;99680.63;4942983;29;20602;-79
2021/05/21 06:51:52;;;;;;;1.55;0.70;;;;;;;16.21;71.35;99676.72;4941481;29;20227;-79
2021/05/21 06:54:22;;;;;;;0.95;0.70;;;;;;;16.31;68.80;99676.31;4961839;28;20222;-81
2021/05/21 06:56:48;;;;;;;3.72;0.70;;;;;;;15.96;69.14;99679.56;4958617;28;20238;-78
2021/05/21 06:59:16;;;;;;;0.52;0.50;;;;;;;16.99;66.36;99677.34;4959962;29;20210;-77
2021/05/21 07:01:42;;;;;;;1.08;0.70;;;;;;;17.08;65.08;99669.81;4942083;29;20237;-81
2021/05/21 07:04:08;;;;;;;0.80;0.60;;;;;;;17.05;63.60;99663.09;4960041;29;20757;-80
2021/05/21 07:06:34;;;;;;;1.15;0.70;;;;;;;17.03;63.88;99670.03;4958169;28;20222;-80
2021/05/21 07:09:05;;;;;;;0.80;0.70;;;;;;;17.18;64.97;99661.19;4943136;29;20215;-81
2021/05/21 07:11:30;;;;;;;1.67;0.70;;;;;;;16.95;64.63;99659.94;4952751;28;20231;-82
2021/05/21 07:13:57;;;;;;;1.88;0.70;;;;;;;16.91;64.25;99661.75;4958326;29;20214;-79
2021/05/21 07:16:23;;;;;;;1.75;0.70;;;;;;;16.86;63.97;99656.47;4943685;29;20254;-79
2021/05/21 07:18:50;;;;;;;1.35;0.63;;;;;;;16.73;65.15;99654.81;4960286;29;20210;-79
2021/05/21 07:21:18;;;;;;;1.85;0.80;;;;;;;16.46;65.99;99642.81;4959576;28;20231;-80
2021/05/21 07:23:46;;;;;;;2.28;0.73;;;;;;;16.18;66.97;99652.69;4958149;28;20211;-79
2021/05/21 07:26:12;;;;;;;2.15;0.70;;;;;;;16.61;66.47;99643.81;4957939;29;20294;-79
2021/05/21 07:28:37;;;;;;;1.60;0.82;;;;;;;16.56;66.12;99641.28;4926704;29;20644;-81
2021/05/21 07:31:05;;;;;;;1.45;0.90;;;;;;;17.05;65.31;99638.38;4952044;29;20270;-79
2021/05/21 07:33:39;;;;;;;2.05;0.80;;;;;;;16.80;65.58;99644.13;4965342;29;20290;-80
2021/05/21 07:36:05;;;;;;;1.67;0.85;;;;;;;16.31;67.84;99637.94;4958793;28;20219;-79
2021/05/21 07:38:32;;;;;;;1.52;0.73;;;;;;;16.60;65.79;99633.97;4960699;28;20229;-81
2021/05/21 07:41:03;;;;;;;2.78;0.93;;;;;;;16.50;67.40;99641.00;4926044;29;20290;-80
2021/05/21 07:43:34;;;;;;;1.10;0.70;;;;;;;16.64;65.34;99632.16;4958972;28;20195;-81
2021/05/21 07:46:00;;;;;;;2.15;0.70;;;;;;;16.27;67.35;99642.50;4946323;29;20299;-82
2021/05/21 07:48:26;;;;;;;1.85;0.80;;;;;;;16.14;67.46;99640.78;4960042;29;20250;-81
2021/05/21 07:50:55;;;;;;;1.40;0.77;;;;;;;16.24;66.93;99630.28;4976398;28;20735;-81
2021/05/21 07:53:22;;;;;;;2.00;0.70;;;;;;;16.70;66.03;99625.34;4959037;28;20275;-79
2021/05/21 07:55:47;;;;;;;1.30;0.80;;;;;;;16.47;65.51;99625.25;4959530;28;20878;-79
2021/05/21 07:58:17;;;;;;;1.58;0.70;;;;;;;16.67;66.21;99626.00;4953195;29;20180;-79
2021/05/21 08:00:46;;;;;;;1.77;0.93;;;;;;;16.79;64.70;99625.25;4969164;28;20745;-80
2021/05/21 08:03:15;;;;;;;2.55;0.88;;;;;;;16.79;65.88;99634.28;4968595;29;20217;-79
2021/05/21 08:05:43;;;;;;;2.22;0.73;;;;;;;16.98;65.30;99626.34;4969453;28;20230;-79
2021/05/21 08:08:09;;;;;;;2.22;0.85;;;;;;;17.16;65.08;99623.13;4966562;29;20234;-80
2021/05/21 08:10:42;;;;;;;2.47;0.70;;;;;;;17.09;65.39;99633.03;4958771;28;20359;-83
2021/05/21 08:13:10;;;;;;;1.38;0.80;;;;;;;15.94;69.29;99655.25;4960006;28;20293;-79
2021/05/21 08:15:36;;;;;;;1.23;0.70;;;;;;;14.92;78.23;99677.00;4944486;29;20230;-80
2021/05/21 08:18:03;;;;;;;2.33;0.80;;;;;;;13.72;96.20;99714.59;4963026;29;20191;-80
2021/05/21 08:20:29;;;;;;;2.13;1.38;;;;;;;12.92;100.00;99709.66;4958295;28;20223;-79
2021/05/21 08:23:00;;;;;;;2.60;1.30;;;;;;;12.30;100.00;99689.91;4967238;28;20297;-77
2021/05/21 08:25:28;;;;;;;4.43;1.03;;;;;;;12.03;100.00;99692.69;4937247;28;20234;-78
2021/05/21 08:27:54;;;;;;;3.07;1.00;;;;;;;11.90;100.00;99694.63;4954067;28;20310;-77
2021/05/21 08:30:21;;;;;;;3.80;1.40;;;;;;;11.90;100.00;99705.50;4937007;28;20286;-76
2021/05/21 08:32:49;;;;;;;3.10;1.40;;;;;;;12.17;100.00;99701.63;4942399;29;20207;-76
2021/05/21 08:35:20;;;;;;;4.17;1.30;;;;;;;11.99;100.00;99691.66;4959568;28;20235;-77
2021/05/21 08:37:49;;;;;;;3.47;1.80;;;;;;;12.36;100.00;99686.78;4955214;29;20183;-76
2021/05/21 08:40:22;;;;;;;4.00;1.70;;;;;;;12.91;100.00;99680.00;4935386;28;20200;-77
2021/05/21 08:42:56;;;;;;;3.27;1.37;;;;;;;12.90;100.00;99678.41;4952470;29;20211;-77
2021/05/21 08:45:24;;;;;;;5.00;1.83;;;;;;;12.82;100.00;99666.31;4951733;28;20804;-78
2021/05/21 08:47:50;;;;;;;4.13;1.60;;;;;;;13.23;100.00;99658.69;4952010;29;20206;-77
2021/05/21 08:50:21;;;;;;;4.13;1.60;;;;;;;13.65;100.00;99664.34;4936317;28;20195;-77
2021/05/21 08:52:48;;;;;;;4.17;1.13;;;;;;;12.99;100.00;99668.34;4967787;28;20199;-77
2021/05/21 08:55:15;;;;;;;4.97;1.30;;;;;;;12.88;100.00;99656.91;4935638;28;20194;-77
2021/05/21 08:57:43;;;;;;;3.87;1.30;;;;;;;13.28;100.00;99648.47;4935228;29;20202;-77
2021/05/21 09:00:09;;;;;;;5.63;1.80;;;;;;;14.13;100.00;99638.63;4951835;28;20290;-77
2021/05/21 09:02:35;;;;;;;4.77;1.30;;;;;;;14.44;100.00;99643.59;4951729;28;20226;-78
2021/05/21 09:05:06;;;;;;;4.80;1.20;;;;;;;14.18;100.00;99642.00;4954600;28;20537;-78
2021/05/21 09:07:36;;;;;;;3.37;1.30;;;;;;;14.55;100.00;99639.44;4972237;28;20214;-79
2021/05/21 09:10:09;;;;;;;2.23;1.00;;;;;;;14.32;100.00;99642.63;4973915;28;20191;-79
2021/05/21 09:12:43;;;;;;;4.80;1.07;;;;;;;14.91;100.00;99639.84;4972773;28;20226;-78
2021/05/21 09:15:17;;;;;;;3.20;0.90;;;;;;;14.91;100.00;99632.47;4956232;28;20201;-77
2021/05/21 09:18:05;;;;;;;3.88;1.20;;;;;;;14.62;100.00;99637.00;4955817;28;20652;-78
2021/05/21 09:20:39;;;;;;;4.75;1.23;;;;;;;15.04;100.00;99639.69;4942813;28;20609;-79
2021/05/21 09:23:15;;;;;;;6.88;1.40;;;;;;;14.50;100.00;99655.19;4940031;28;20220;-80
2021/05/21 09:25:44;;;;;;;3.85;1.40;;;;;;;14.17;100.00;99669.63;4956950;28;20241;-80
2021/05/21 09:28:33;;;;;;;3.00;1.20;;;;;;;13.68;100.00;99680.88;4974058;28;20685;-78
2021/05/21 09:31:11;;;;;;;3.63;1.30;;;;;;;13.56;100.00;99688.84;4973101;28;20232;-78
2021/05/21 09:33:37;;;;;;;4.47;1.50;;;;;;;13.89;100.00;99688.16;4970664;28;20206;-77
2021/05/21 09:36:09;;;;;;;6.83;1.40;;;;;;;13.60;100.00;99668.00;4955394;28;20310;-78
2021/05/21 09:38:54;;;;;;;5.40;1.40;;;;;;;13.98;100.00;99630.84;4974782;28;20218;-78
2021/05/21 09:41:22;;;;;;;5.60;1.70;;;;;;;13.82;100.00;99626.16;4939929;28;20269;-79
2021/05/21 09:43:57;;;;;;;3.37;1.40;;;;;;;14.32;100.00;99626.25;4970592;28;20215;-77
2021/05/21 09:46:23;;;;;;;4.53;1.47;;;;;;;14.99;100.00;99621.50;4939945;28;20272;-78
2021/05/21 09:48:51;;;;;;;5.33;1.90;;;;;;;15.41;100.00;99624.09;4971075;28;20210;-78
2021/05/21 09:51:19;;;;;;;3.53;1.40;;;;;;;15.29;100.00;99625.94;4940282;28;20703;-76
2021/05/21 09:53:47;;;;;;;3.87;1.30;;;;;;;15.42;100.00;99630.41;4973627;28;20211;-78
2021/05/21 09:56:26;;;;;;;3.13;1.17;;;;;;;15.92;100.00;99616.44;4970882;28;20221;-78
2021/05/21 09:58:52;;;;;;;3.83;1.10;;;;;;;15.87;100.00;99622.09;4970152;28;20182;-77
2021/05/21 10:01:23;;;;;;;4.50;1.30;;;;;;;15.55;100.00;99629.38;4972399;28;20582;-79
2021/05/21 10:03:49;;;;;;;3.90;1.65;;;;;;;15.69;100.00;99624.47;4957775;28;20209;-78
2021/05/21 10:06:16;;;;;;;3.05;1.30;;;;;;;16.01;100.00;99611.69;4976049;28;20273;-79
2021/05/21 10:08:44;;;;;;;3.67;1.40;;;;;;;16.17;100.00;99619.00;4943746;28;20212;-77
2021/05/21 10:11:12;;;;;;;4.45;1.40;;;;;;;16.05;100.00;99618.13;4975923;28;20226;-77
2021/05/21 10:13:44;;;;;;;6.10;3.22;;;;;;;16.91;100.00;99604.16;4959776;28;20222;-78
2021/05/21 10:16:10;;;;;;;3.55;1.85;;;;;;;16.20;100.00;99598.38;4945996;28;20222;-80
2021/05/21 10:18:45;;;;;;;2.72;1.02;;;;;;;16.03;95.08;99612.16;4977718;28;20241;-79
2021/05/21 10:21:13;;;;;;;3.17;1.50;;;;;;;16.68;98.13;99605.69;4978055;28;20222;-80
2021/05/21 10:23:53;;;;;;;5.07;1.50;;;;;;;16.41;89.58;99601.88;4960470;28;20264;-79
2021/05/21 10:26:33;;;;;;;2.90;1.10;;;;;;;16.73;92.17;99613.69;4975824;28;20233;-79
2021/05/21 10:29:01;;;;;;;2.42;1.23;;;;;;;16.79;92.11;99606.84;4961358;28;20218;-79
2021/05/21 10:31:29;;;;;;;3.10;1.33;;;;;;;16.50;88.31;99599.88;4945881;28;20242;-80
2021/05/21 10:34:18;;;;;;;2.58;1.33;;;;;;;17.25;87.89;99595.56;4960656;28;20210;-79
2021/05/21 10:37:24;;;;;;;2.97;1.30;;;;;;;17.24;86.00;99599.47;4978249;28;20319;-80
2021/05/21 10:40:24;;;;;;;1.98;1.30;;;;;;;17.43;86.18;99601.28;4953993;28;20221;-79
2021/05/21 10:43:15;;;;;;;2.72;1.27;;;;;;;17.18;82.75;99593.38;4963522;28;20264;-79
2021/05/21 10:45:55;;;;;;;2.28;1.55;;;;;;;16.87;87.24;99595.00;4960825;28;20277;-78
2021/05/21 10:48:30;;;;;;;5.13;1.35;;;;;;;16.75;90.92;99594.94;4945883;28;20833;-79
2021/05/21 10:51:13;;;;;;;3.67;1.60;;;;;;;16.81;89.09;99604.59;4944789;28;20230;-80
2021/05/21 10:53:46;;;;;;;3.20;1.45;;;;;;;16.32;88.89;99595.72;4976961;28;20198;-78
2021/05/21 10:56:16;;;;;;;3.10;1.60;;;;;;;16.19;91.28;99591.31;4959260;28;20286;-79
2021/05/21 10:58:53;;;;;;;3.90;1.60;;;;;;;15.77;91.12;99609.91;4975475;28;20185;-78
2021/05/21 11:01:32;;;;;;;2.70;1.67;;;;;;;15.65;94.97;99612.56;4944891;28;20308;-78
2021/05/21 11:04:01;;;;;;;2.80;1.50;;;;;;;15.17;95.81;99623.09;4974246;28;20206;-78
2021/05/21 11:06:26;;;;;;;2.03;1.70;;;;;;;14.99;99.73;99626.16;4958148;28;20246;-78
2021/05/21 11:08:59;;;;;;;2.45;1.50;;;;;;;14.97;100.00;99646.78;4951692;29;20297;-79
2021/05/21 11:11:44;;;;;;;3.08;1.45;;;;;;;14.68;100.00;99646.66;4956940;28;21010;-79
2021/05/21 11:14:27;;;;;;;4.13;1.70;;;;;;;14.71;97.90;99646.00;4955626;28;20199;-78
2021/05/21 11:17:17;;;;;;;1.83;1.43;;;;;;;14.94;95.99;99631.78;4954971;28;20777;-79
2021/05/21 11:19:45;;;;;;;3.07;1.40;;;;;;;15.19;95.85;99642.72;4927222;29;20194;-77
2021/05/21 11:22:22;;;;;;;3.57;1.70;;;;;;;15.39;99.76;99649.41;4954154;28;20223;-79
2021/05/21 11:24:52;;;;;;;3.43;1.60;;;;;;;15.16;98.78;99654.31;4939263;29;20264;-74
2021/05/21 11:27:18;;;;;;;2.43;1.50;;;;;;;15.65;98.12;99650.91;4936903;29;20230;-74
2021/05/21 11:29:53;;;;;;;7.97;2.57;;;;;;;16.09;96.39;99635.47;4937037;29;20202;-75
2021/05/21 11:32:25;;;;;;;2.92;1.35;;;;;;;15.13;91.76;99627.59;4951814;28;20234;-79
2021/05/21 11:34:53;;;;;;;4.90;1.40;;;;;;;14.62;92.35;99620.63;4957387;29;20182;-77
2021/05/21 11:37:23;;;;;;;4.45;2.85;;;;;;;14.80;95.07;99627.66;4955509;28;20712;-81